Time;durP1;ratioP1;P1;durP2;ratioP2;P2;SDS_P1;SDS_P2;PMS_P1;PMS_P2;Temp;Humidity;BMP_temperature;BMP_pressure;BME280_temperature;BME280_humidity;BME280_pressure;Samples;Min_cycle;Max_cycle;Signal;HPM_P1;HPM_P2
2023/05/14 00:01:33;;;;;;;;;20.67;14.00;;;;;;;;5057190;28;45229;-78
2023/05/14 00:03:58;;;;;;;;;22.75;12.50;;;;;;;;5057064;28;45266;-78
2023/05/14 00:06:24;;;;;;;;;17.33;13.67;;;;;;;;5055871;28;45338;-77
2023/05/14 00:08:49;;;;;;;;;17.00;14.33;;;;;;;;5056613;28;45322;-78
2023/05/14 00:11:14;;;;;;;;;18.33;10.67;;;;;;;;5056378;28;45158;-77
2023/05/14 00:13:40;;;;;;;;;15.00;12.00;;;;;;;;5056722;28;45368;-78
2023/05/14 00:16:05;;;;;;;;;18.33;12.67;;;;;;;;5056455;28;47074;-78
2023/05/14 00:18:30;;;;;;;;;17.33;14.00;;;;;;;;5056661;28;45436;-78
2023/05/14 00:20:55;;;;;;;;;16.00;12.00;;;;;;;;5056766;28;45339;-78
2023/05/14 00:23:21;;;;;;;;;13.00;12.00;;;;;;;;5056446;28;45604;-78
2023/05/14 00:25:46;;;;;;;;;15.25;12.25;;;;;;;;5038385;28;47363;-78
2023/05/14 00:28:11;;;;;;;;;20.00;17.33;;;;;;;;5056582;28;45398;-78
2023/05/14 00:30:36;;;;;;;;;18.00;12.67;;;;;;;;5056684;28;45520;-78
2023/05/14 00:33:02;;;;;;;;;21.50;17.50;;;;;;;;5038410;28;45347;-78
2023/05/14 00:35:27;;;;;;;;;19.00;14.25;;;;;;;;5056396;28;45390;-78
2023/05/14 00:37:52;;;;;;;;;18.00;14.67;;;;;;;;5056007;28;45455;-79
2023/05/14 00:40:18;;;;;;;;;17.67;11.33;;;;;;;;5038486;28;45420;-78
2023/05/14 00:42:43;;;;;;;;;16.50;12.25;;;;;;;;5056477;28;45569;-78
2023/05/14 00:45:08;;;;;;;;;16.00;12.33;;;;;;;;5056185;28;46958;-78
2023/05/14 00:47:35;;;;;;;;;14.00;11.75;;;;;;;;5056182;28;45411;-78
2023/05/14 00:50:01;;;;;;;;;23.25;13.25;;;;;;;;5056313;28;45369;-78
2023/05/14 00:52:26;;;;;;;;;16.25;9.25;;;;;;;;5055902;28;45384;-78
2023/05/14 00:54:53;;;;;;;;;19.00;11.00;;;;;;;;5055984;28;46025;-78
2023/05/14 00:57:18;;;;;;;;;15.50;11.50;;;;;;;;5056119;28;45340;-78
2023/05/14 00:59:43;;;;;;;;;19.33;16.00;;;;;;;;5056276;28;45228;-79
2023/05/14 01:02:08;;;;;;;;;21.33;13.00;;;;;;;;5037033;28;45444;-78
2023/05/14 01:04:34;;;;;;;;;16.00;14.00;;;;;;;;5055980;28;45444;-78
2023/05/14 01:07:08;;;;;;;;;21.75;14.25;;;;;;;;5055478;28;45289;-78
2023/05/14 01:09:37;;;;;;;;;26.25;13.75;;;;;;;;5055672;28;45236;-78
2023/05/14 01:12:21;;;;;;;;;26.75;17.00;;;;;;;;5055804;28;45428;-78
2023/05/14 01:14:49;;;;;;;;;18.75;15.00;;;;;;;;5055856;28;46474;-78
2023/05/14 01:17:18;;;;;;;;;19.00;12.25;;;;;;;;5055774;28;45376;-78
2023/05/14 01:19:44;;;;;;;;;23.00;17.00;;;;;;;;5056004;28;45495;-78
2023/05/14 01:22:10;;;;;;;;;18.25;15.00;;;;;;;;5055616;28;45422;-79
2023/05/14 01:24:35;;;;;;;;;24.75;19.25;;;;;;;;5055696;28;45431;-78
2023/05/14 01:27:06;;;;;;;;;24.00;16.75;;;;;;;;5055674;28;45589;-78
2023/05/14 01:29:33;;;;;;;;;19.00;16.00;;;;;;;;5055821;28;45473;-78
2023/05/14 01:31:59;;;;;;;;;18.50;14.75;;;;;;;;5037890;28;45314;-78
2023/05/14 01:34:27;;;;;;;;;18.75;12.25;;;;;;;;5055228;28;46321;-78
2023/05/14 01:36:53;;;;;;;;;23.50;16.50;;;;;;;;5055684;28;45353;-78
2023/05/14 01:39:19;;;;;;;;;19.25;16.00;;;;;;;;5055828;28;45444;-78
2023/05/14 01:41:45;;;;;;;;;23.50;14.75;;;;;;;;5055637;28;45387;-78
2023/05/14 01:44:10;;;;;;;;;22.50;17.00;;;;;;;;5055455;28;45496;-78
2023/05/14 01:46:35;;;;;;;;;23.00;15.00;;;;;;;;5055480;28;45562;-78
2023/05/14 01:49:01;;;;;;;;;26.33;13.00;;;;;;;;5055317;28;45293;-78
2023/05/14 01:51:26;;;;;;;;;26.00;18.33;;;;;;;;5037322;28;45509;-78
2023/05/14 01:53:51;;;;;;;;;17.00;11.33;;;;;;;;5055411;28;46458;-78
2023/05/14 01:56:17;;;;;;;;;17.25;14.25;;;;;;;;5055503;28;45353;-78
2023/05/14 01:58:42;;;;;;;;;24.00;13.00;;;;;;;;5055509;28;45391;-78
2023/05/14 02:01:07;;;;;;;;;26.00;17.33;;;;;;;;5055361;28;45285;-78
2023/05/14 02:03:32;;;;;;;;;21.33;16.33;;;;;;;;5054929;28;46356;-78
2023/05/14 02:05:57;;;;;;;;;16.67;15.67;;;;;;;;5055255;28;45427;-78
2023/05/14 02:08:23;;;;;;;;;23.67;16.00;;;;;;;;5055172;28;45304;-78
2023/05/14 02:10:48;;;;;;;;;19.67;16.00;;;;;;;;5055222;28;45290;-78
2023/05/14 02:13:13;;;;;;;;;20.00;15.67;;;;;;;;5056022;28;46601;-78
2023/05/14 02:15:38;;;;;;;;;22.33;18.00;;;;;;;;5058628;28;45309;-78
2023/05/14 02:18:03;;;;;;;;;29.00;15.67;;;;;;;;5058314;28;45266;-78
2023/05/14 02:20:29;;;;;;;;;21.00;17.00;;;;;;;;5058622;28;45411;-78
2023/05/14 02:22:54;;;;;;;;;20.33;15.33;;;;;;;;5058487;28;46826;-80
2023/05/14 02:25:19;;;;;;;;;26.00;16.33;;;;;;;;5058610;28;45513;-80
2023/05/14 02:27:44;;;;;;;;;25.00;15.33;;;;;;;;5058551;28;45503;-78
2023/05/14 02:30:10;;;;;;;;;26.00;15.67;;;;;;;;5058504;28;45614;-78
2023/05/14 02:32:35;;;;;;;;;24.50;18.00;;;;;;;;5057949;28;46246;-78
2023/05/14 02:35:00;;;;;;;;;22.67;18.00;;;;;;;;5058526;28;45235;-78
2023/05/14 02:37:25;;;;;;;;;26.33;19.67;;;;;;;;5058342;28;45281;-78
2023/05/14 02:39:52;;;;;;;;;17.33;16.00;;;;;;;;5058236;28;45397;-78
2023/05/14 02:42:17;;;;;;;;;17.00;15.75;;;;;;;;5058177;28;45285;-78
2023/05/14 02:44:42;;;;;;;;;23.67;16.00;;;;;;;;5058157;28;45314;-79
2023/05/14 02:47:07;;;;;;;;;19.33;14.33;;;;;;;;5057744;28;45286;-78
2023/05/14 02:49:32;;;;;;;;;23.00;15.00;;;;;;;;5058216;28;45278;-78
2023/05/14 02:51:59;;;;;;;;;18.33;13.67;;;;;;;;5058148;28;46803;-79
2023/05/14 02:54:24;;;;;;;;;23.50;17.75;;;;;;;;5058080;28;45352;-78
2023/05/14 02:56:50;;;;;;;;;22.33;14.00;;;;;;;;5058336;28;45346;-78
2023/05/14 02:59:15;;;;;;;;;17.67;15.67;;;;;;;;5058131;28;45463;-78
2023/05/14 03:01:40;;;;;;;;;18.67;14.00;;;;;;;;5057711;28;45345;-78
2023/05/14 03:04:06;;;;;;;;;22.33;16.67;;;;;;;;5057981;28;45475;-77
2023/05/14 03:06:31;;;;;;;;;17.00;14.00;;;;;;;;5057918;28;45461;-78
2023/05/14 03:08:56;;;;;;;;;20.33;15.33;;;;;;;;5058187;28;45415;-78
2023/05/14 03:11:22;;;;;;;;;17.33;11.00;;;;;;;;5039703;28;47142;-77
2023/05/14 03:13:47;;;;;;;;;21.67;15.33;;;;;;;;5039269;28;45354;-78
2023/05/14 03:16:12;;;;;;;;;15.67;14.00;;;;;;;;5057714;28;45304;-79
2023/05/14 03:18:38;;;;;;;;;21.67;13.00;;;;;;;;5057530;28;45650;-78
2023/05/14 03:21:03;;;;;;;;;26.00;12.25;;;;;;;;5057434;28;46307;-77
2023/05/14 03:23:30;;;;;;;;;19.50;11.50;;;;;;;;5073267;28;46299;-78
2023/05/14 03:25:56;;;;;;;;;21.00;15.00;;;;;;;;5056690;28;45494;-78
2023/05/14 03:28:21;;;;;;;;;20.50;16.00;;;;;;;;5057627;28;45368;-79
2023/05/14 03:30:46;;;;;;;;;24.67;15.33;;;;;;;;5056994;28;46700;-79
2023/05/14 03:33:11;;;;;;;;;21.00;17.00;;;;;;;;5057423;28;45372;-78
2023/05/14 03:35:36;;;;;;;;;19.33;14.00;;;;;;;;5057698;28;45450;-78
2023/05/14 03:38:02;;;;;;;;;21.67;15.00;;;;;;;;5039456;28;45490;-78
2023/05/14 03:40:27;;;;;;;;;16.33;15.00;;;;;;;;5057222;28;46585;-79
2023/05/14 03:42:52;;;;;;;;;16.33;15.00;;;;;;;;5057435;28;45376;-78
2023/05/14 03:45:17;;;;;;;;;21.33;15.67;;;;;;;;5056774;28;45401;-77
2023/05/14 03:47:42;;;;;;;;;15.00;13.67;;;;;;;;5057336;28;45389;-78
2023/05/14 03:50:08;;;;;;;;;26.00;16.33;;;;;;;;5056954;28;46302;-77
2023/05/14 03:52:33;;;;;;;;;14.50;11.25;;;;;;;;5057071;28;45492;-78
2023/05/14 03:54:58;;;;;;;;;17.33;13.00;;;;;;;;5057343;28;45369;-78
2023/05/14 03:57:23;;;;;;;;;23.67;15.67;;;;;;;;5039052;28;45571;-78
2023/05/14 03:59:48;;;;;;;;;19.00;15.33;;;;;;;;5056691;28;46382;-77
2023/05/14 04:02:14;;;;;;;;;21.00;17.33;;;;;;;;5039141;28;45466;-77
2023/05/14 04:04:39;;;;;;;;;22.00;16.50;;;;;;;;5057135;28;45468;-78
2023/05/14 04:07:05;;;;;;;;;20.50;15.25;;;;;;;;5056884;28;45440;-77
2023/05/14 04:09:30;;;;;;;;;21.33;15.00;;;;;;;;5056779;28;47253;-77
2023/05/14 04:11:55;;;;;;;;;24.00;16.00;;;;;;;;5056757;28;45390;-77
2023/05/14 04:14:20;;;;;;;;;23.33;16.00;;;;;;;;5056734;28;45285;-77
2023/05/14 04:16:45;;;;;;;;;21.00;13.00;;;;;;;;5056679;28;45326;-78
2023/05/14 04:19:11;;;;;;;;;16.00;13.00;;;;;;;;5056764;28;46808;-77
2023/05/14 04:21:36;;;;;;;;;17.33;13.00;;;;;;;;5056891;28;45369;-78
2023/05/14 04:24:01;;;;;;;;;17.33;15.33;;;;;;;;5056807;28;45515;-78
2023/05/14 04:26:26;;;;;;;;;16.33;14.33;;;;;;;;5056699;28;45293;-78
2023/05/14 04:28:51;;;;;;;;;16.67;13.33;;;;;;;;5056184;28;45384;-79
2023/05/14 04:31:16;;;;;;;;;23.33;16.00;;;;;;;;5038425;28;45713;-78
2023/05/14 04:33:42;;;;;;;;;18.00;15.33;;;;;;;;5056738;28;45348;-78
2023/05/14 04:36:07;;;;;;;;;22.33;16.00;;;;;;;;5038271;28;45590;-78
2023/05/14 04:38:32;;;;;;;;;19.67;13.33;;;;;;;;5056309;28;45577;-77
2023/05/14 04:40:57;;;;;;;;;18.67;14.00;;;;;;;;5056313;28;45388;-78
2023/05/14 04:43:23;;;;;;;;;16.00;14.00;;;;;;;;5056070;28;45253;-78
2023/05/14 04:45:48;;;;;;;;;26.00;13.25;;;;;;;;5038137;28;45467;-78
2023/05/14 04:48:13;;;;;;;;;17.67;10.67;;;;;;;;5056314;28;46487;-78
2023/05/14 04:50:38;;;;;;;;;19.33;13.00;;;;;;;;5056136;28;45374;-78
2023/05/14 04:53:03;;;;;;;;;22.67;18.00;;;;;;;;5038158;28;45606;-78
2023/05/14 04:55:29;;;;;;;;;22.67;16.00;;;;;;;;5056279;28;45279;-78
2023/05/14 04:57:54;;;;;;;;;28.00;13.50;;;;;;;;5055663;28;46141;-78
2023/05/14 05:00:20;;;;;;;;;23.33;15.00;;;;;;;;5056266;28;45275;-79
2023/05/14 05:02:45;;;;;;;;;20.25;12.75;;;;;;;;5056119;28;45280;-78
2023/05/14 05:05:10;;;;;;;;;20.67;14.67;;;;;;;;5056121;28;45282;-79
2023/05/14 05:07:36;;;;;;;;;22.33;16.33;;;;;;;;5055957;28;45518;-78
2023/05/14 05:10:01;;;;;;;;;21.33;15.00;;;;;;;;5055989;28;45594;-78
2023/05/14 05:12:28;;;;;;;;;24.75;15.00;;;;;;;;5055708;28;45428;-78
2023/05/14 05:14:54;;;;;;;;;24.50;16.75;;;;;;;;5055914;28;45419;-78
2023/05/14 05:17:19;;;;;;;;;21.50;14.75;;;;;;;;5055806;28;46617;-78
2023/05/14 05:19:44;;;;;;;;;16.33;10.00;;;;;;;;5055918;28;45467;-78
2023/05/14 05:22:10;;;;;;;;;23.33;18.33;;;;;;;;5056028;28;45286;-79
2023/05/14 05:24:35;;;;;;;;;19.75;14.00;;;;;;;;5056026;28;45281;-78
2023/05/14 05:27:00;;;;;;;;;21.33;16.00;;;;;;;;5037364;28;47171;-78
2023/05/14 05:29:25;;;;;;;;;22.67;19.33;;;;;;;;5055605;28;45346;-78
2023/05/14 05:31:50;;;;;;;;;26.25;17.50;;;;;;;;5055813;28;45414;-78
2023/05/14 05:34:16;;;;;;;;;24.33;18.00;;;;;;;;5055933;28;45465;-78
2023/05/14 05:36:41;;;;;;;;;21.67;14.67;;;;;;;;5055663;28;46637;-78
2023/05/14 05:39:06;;;;;;;;;20.00;15.00;;;;;;;;5055503;28;45186;-78
2023/05/14 05:41:31;;;;;;;;;19.67;15.67;;;;;;;;5055227;28;45211;-78
2023/05/14 05:43:56;;;;;;;;;19.33;14.67;;;;;;;;5055488;28;45426;-78
2023/05/14 05:46:22;;;;;;;;;25.00;18.00;;;;;;;;5055490;28;45552;-78
2023/05/14 05:48:47;;;;;;;;;24.00;14.67;;;;;;;;5057408;28;45328;-79
2023/05/14 05:51:12;;;;;;;;;26.67;17.33;;;;;;;;5059243;28;45451;-79
2023/05/14 05:53:37;;;;;;;;;21.00;15.00;;;;;;;;5059220;28;45332;-77
2023/05/14 05:56:02;;;;;;;;;24.33;18.33;;;;;;;;5058389;28;46230;-78
2023/05/14 05:58:28;;;;;;;;;21.33;16.00;;;;;;;;5058970;28;45353;-77
2023/05/14 06:00:53;;;;;;;;;27.25;16.50;;;;;;;;5058982;28;45365;-78
2023/05/14 06:03:19;;;;;;;;;29.75;19.25;;;;;;;;5058951;28;45346;-79
2023/05/14 06:05:45;;;;;;;;;22.50;19.25;;;;;;;;5058582;28;46417;-80
2023/05/14 06:08:10;;;;;;;;;26.00;17.75;;;;;;;;5058766;28;45314;-80
2023/05/14 06:10:36;;;;;;;;;9.50;5.25;;;;;;;;5058441;28;45480;-79
2023/05/14 06:13:01;;;;;;;;;19.25;12.75;;;;;;;;5058829;28;45357;-80
2023/05/14 06:15:26;;;;;;;;;26.67;14.33;;;;;;;;5058510;28;46418;-79
2023/05/14 06:17:51;;;;;;;;;16.67;13.33;;;;;;;;5058250;28;45459;-79
2023/05/14 06:20:17;;;;;;;;;25.00;15.67;;;;;;;;5058779;28;45339;-79
2023/05/14 06:22:42;;;;;;;;;20.00;16.25;;;;;;;;5058756;28;45461;-79
2023/05/14 06:25:08;;;;;;;;;19.00;15.00;;;;;;;;5057979;28;46481;-80
2023/05/14 06:27:33;;;;;;;;;21.50;14.25;;;;;;;;5058490;28;45379;-80
2023/05/14 06:29:58;;;;;;;;;25.67;17.33;;;;;;;;5058530;28;45392;-80
2023/05/14 06:32:23;;;;;;;;;27.67;19.00;;;;;;;;5058600;28;45447;-79
2023/05/14 06:34:49;;;;;;;;;17.67;15.00;;;;;;;;5058316;28;46606;-79
2023/05/14 06:37:14;;;;;;;;;20.00;16.00;;;;;;;;5058268;28;45427;-80
2023/05/14 06:39:42;;;;;;;;;36.00;18.00;;;;;;;;5058338;28;45464;-79
2023/05/14 06:42:08;;;;;;;;;28.75;20.75;;;;;;;;5058351;28;45330;-80
2023/05/14 06:44:33;;;;;;;;;34.00;17.33;;;;;;;;5057814;28;46260;-79
2023/05/14 06:46:58;;;;;;;;;16.67;15.67;;;;;;;;5058099;28;45233;-79
2023/05/14 06:49:24;;;;;;;;;21.00;16.67;;;;;;;;5058305;28;45439;-79
2023/05/14 06:51:49;;;;;;;;;25.50;24.25;;;;;;;;5058155;28;45277;-80
2023/05/14 06:54:14;;;;;;;;;28.00;15.00;;;;;;;;5039088;28;48658;-79
2023/05/14 06:56:39;;;;;;;;;20.25;16.25;;;;;;;;5039819;28;45405;-79
2023/05/14 06:59:05;;;;;;;;;23.00;13.00;;;;;;;;5057456;28;45398;-79
2023/05/14 07:01:30;;;;;;;;;27.50;22.50;;;;;;;;5057406;28;45601;-79
2023/05/14 07:03:55;;;;;;;;;21.00;17.00;;;;;;;;5039821;28;46378;-79
2023/05/14 07:06:21;;;;;;;;;22.33;15.00;;;;;;;;5057789;28;45613;-79
2023/05/14 07:08:46;;;;;;;;;22.25;15.50;;;;;;;;5057720;28;45552;-80
2023/05/14 07:11:12;;;;;;;;;22.67;15.67;;;;;;;;5057833;28;45376;-79
2023/05/14 07:13:37;;;;;;;;;27.25;16.25;;;;;;;;5057630;28;45557;-79
2023/05/14 07:16:03;;;;;;;;;22.25;15.25;;;;;;;;5057765;28;45301;-79
2023/05/14 07:18:28;;;;;;;;;17.75;15.75;;;;;;;;5057737;28;45341;-79
2023/05/14 07:20:53;;;;;;;;;23.33;14.33;;;;;;;;5057945;28;45312;-79
2023/05/14 07:23:18;;;;;;;;;22.00;13.67;;;;;;;;5057150;28;45297;-80
2023/05/14 07:25:43;;;;;;;;;21.67;14.00;;;;;;;;5057574;28;45340;-79
2023/05/14 07:28:09;;;;;;;;;25.67;14.00;;;;;;;;5057819;28;45387;-79
2023/05/14 07:30:34;;;;;;;;;15.75;10.50;;;;;;;;5057385;28;45297;-78
2023/05/14 07:32:59;;;;;;;;;20.00;15.00;;;;;;;;5057383;28;45361;-78
2023/05/14 07:35:25;;;;;;;;;18.33;15.00;;;;;;;;5057307;28;45290;-77
2023/05/14 07:37:50;;;;;;;;;24.33;16.33;;;;;;;;5057019;28;45306;-77
2023/05/14 07:40:15;;;;;;;;;21.67;17.33;;;;;;;;5056774;28;45339;-79
2023/05/14 07:42:40;;;;;;;;;21.33;15.33;;;;;;;;5054438;28;45435;-78
2023/05/14 07:45:06;;;;;;;;;15.67;14.67;;;;;;;;5055474;28;45942;-78
2023/05/14 07:47:31;;;;;;;;;19.50;14.75;;;;;;;;5056415;28;45315;-77
2023/05/14 07:49:57;;;;;;;;;19.67;13.00;;;;;;;;5056925;28;45286;-79
2023/05/14 07:52:22;;;;;;;;;16.75;13.00;;;;;;;;5056168;28;45317;-78
2023/05/14 07:54:48;;;;;;;;;20.75;14.00;;;;;;;;5057035;28;45298;-78
2023/05/14 07:57:14;;;;;;;;;18.75;12.50;;;;;;;;5056817;28;45274;-80
2023/05/14 07:59:39;;;;;;;;;22.00;15.00;;;;;;;;5056914;28;45603;-78
2023/05/14 08:02:04;;;;;;;;;18.33;12.00;;;;;;;;5056843;28;46214;-79
2023/05/14 08:04:29;;;;;;;;;18.00;14.67;;;;;;;;5056720;28;45206;-78
2023/05/14 08:06:56;;;;;;;;;20.00;10.67;;;;;;;;5056304;28;45269;-78
2023/05/14 08:09:22;;;;;;;;;15.25;12.50;;;;;;;;5056801;28;45473;-79
2023/05/14 08:11:47;;;;;;;;;16.00;13.33;;;;;;;;5053400;28;46288;-79
2023/05/14 08:14:12;;;;;;;;;17.33;11.33;;;;;;;;5056297;28;45510;-79
2023/05/14 08:16:37;;;;;;;;;16.33;11.33;;;;;;;;5038796;28;45374;-78
2023/05/14 08:19:03;;;;;;;;;16.00;13.00;;;;;;;;5056729;28;45468;-78
2023/05/14 08:21:28;;;;;;;;;17.33;13.00;;;;;;;;5055951;28;45581;-79
2023/05/14 08:23:53;;;;;;;;;19.33;13.00;;;;;;;;5038149;28;46033;-79
2023/05/14 08:26:18;;;;;;;;;16.00;10.67;;;;;;;;5056106;28;45357;-79
2023/05/14 08:28:43;;;;;;;;;21.33;13.00;;;;;;;;5056200;28;45460;-79
2023/05/14 08:31:08;;;;;;;;;14.00;14.00;;;;;;;;5037621;28;47951;-78
2023/05/14 08:33:34;;;;;;;;;21.00;15.00;;;;;;;;5055830;28;45354;-78
2023/05/14 08:35:59;;;;;;;;;17.00;14.33;;;;;;;;5055519;28;45452;-79
2023/05/14 08:38:24;;;;;;;;;18.00;14.00;;;;;;;;5055951;28;45528;-80
2023/05/14 08:40:55;;;;;;;;;16.25;11.00;;;;;;;;5056036;28;46364;-80
2023/05/14 08:43:22;;;;;;;;;17.50;13.25;;;;;;;;5056305;28;45293;-81
2023/05/14 08:45:50;;;;;;;;;17.75;14.25;;;;;;;;5055890;28;45510;-81
2023/05/14 08:48:17;;;;;;;;;19.50;14.25;;;;;;;;5055850;28;45548;-82
2023/05/14 08:50:43;;;;;;;;;20.75;14.50;;;;;;;;5033110;28;47379;-81
2023/05/14 08:53:09;;;;;;;;;18.75;14.50;;;;;;;;5049387;28;45507;-81
2023/05/14 08:55:36;;;;;;;;;19.75;10.50;;;;;;;;5054334;28;45490;-81
2023/05/14 08:58:01;;;;;;;;;20.50;12.00;;;;;;;;5054658;28;45487;-83
2023/05/14 09:00:26;;;;;;;;;20.67;12.33;;;;;;;;5048239;28;45474;-80
2023/05/14 09:02:51;;;;;;;;;18.00;14.00;;;;;;;;5029286;28;45718;-81
2023/05/14 09:05:17;;;;;;;;;13.00;9.00;;;;;;;;5053374;28;45525;-81
2023/05/14 09:07:43;;;;;;;;;15.25;12.75;;;;;;;;5065000;28;45632;-81
2023/05/14 09:10:09;;;;;;;;;10.50;8.50;;;;;;;;5052473;28;47277;-81
2023/05/14 09:12:34;;;;;;;;;15.50;11.25;;;;;;;;5054925;28;45567;-81
2023/05/14 09:14:59;;;;;;;;;21.67;16.33;;;;;;;;5046904;28;45427;-82
2023/05/14 09:17:25;;;;;;;;;17.33;15.33;;;;;;;;5054973;28;45512;-80
2023/05/14 09:19:51;;;;;;;;;16.75;13.25;;;;;;;;5048816;28;45358;-78
2023/05/14 09:22:17;;;;;;;;;20.50;12.25;;;;;;;;5054281;28;45798;-78
2023/05/14 09:24:43;;;;;;;;;18.25;14.00;;;;;;;;5054321;28;45449;-79
2023/05/14 09:27:13;;;;;;;;;14.50;13.75;;;;;;;;5054652;28;45375;-78
2023/05/14 09:29:39;;;;;;;;;14.25;12.50;;;;;;;;5050301;28;46434;-79
2023/05/14 09:32:06;;;;;;;;;22.00;11.00;;;;;;;;5038283;28;45461;-79
2023/05/14 09:34:32;;;;;;;;;16.50;13.00;;;;;;;;5054419;28;45391;-80
2023/05/14 09:36:58;;;;;;;;;18.25;14.00;;;;;;;;5040655;28;45417;-79
2023/05/14 09:39:24;;;;;;;;;20.75;13.00;;;;;;;;5054092;28;46464;-81
2023/05/14 09:41:50;;;;;;;;;20.50;14.00;;;;;;;;5049899;28;45457;-78
2023/05/14 09:44:16;;;;;;;;;20.75;17.00;;;;;;;;5042346;28;45357;-79
2023/05/14 09:46:41;;;;;;;;;11.25;11.25;;;;;;;;5036198;28;45576;-78
2023/05/14 09:49:06;;;;;;;;;19.00;14.33;;;;;;;;5040379;28;47109;-79
2023/05/14 09:51:31;;;;;;;;;16.33;11.00;;;;;;;;5054546;28;45356;-79
2023/05/14 09:53:56;;;;;;;;;13.33;9.00;;;;;;;;5054513;28;45684;-79
2023/05/14 09:56:22;;;;;;;;;23.67;16.33;;;;;;;;5052327;28;45479;-78
2023/05/14 09:58:47;;;;;;;;;17.50;10.75;;;;;;;;5047927;28;46135;-78
2023/05/14 10:01:13;;;;;;;;;19.25;15.25;;;;;;;;5048008;28;45545;-79
2023/05/14 10:03:39;;;;;;;;;15.75;14.25;;;;;;;;5051565;28;45369;-79
2023/05/14 10:06:05;;;;;;;;;17.50;12.00;;;;;;;;5052606;28;45471;-79
2023/05/14 10:08:32;;;;;;;;;17.75;16.25;;;;;;;;5044365;28;45932;-79
2023/05/14 10:11:00;;;;;;;;;21.75;14.00;;;;;;;;5034656;28;45744;-80
2023/05/14 10:13:36;;;;;;;;;20.75;15.25;;;;;;;;5054040;28;45456;-79
2023/05/14 10:16:10;;;;;;;;;18.50;13.00;;;;;;;;5048407;28;45456;-79
2023/05/14 10:18:39;;;;;;;;;17.25;11.75;;;;;;;;5046841;28;46244;-78
2023/05/14 10:21:05;;;;;;;;;17.75;16.00;;;;;;;;5053744;28;45769;-77
2023/05/14 10:23:31;;;;;;;;;16.25;11.75;;;;;;;;5054359;28;45333;-79
2023/05/14 10:25:58;;;;;;;;;15.75;11.75;;;;;;;;5052242;28;45428;-78
2023/05/14 10:28:23;;;;;;;;;15.25;12.50;;;;;;;;5048165;28;46311;-78
2023/05/14 10:30:49;;;;;;;;;16.75;13.75;;;;;;;;5048123;28;45503;-77
2023/05/14 10:33:15;;;;;;;;;21.00;13.75;;;;;;;;5050052;28;45536;-78
2023/05/14 10:35:59;;;;;;;;;20.00;12.75;;;;;;;;5056990;28;45505;-78
2023/05/14 10:38:26;;;;;;;;;20.25;13.50;;;;;;;;5057161;28;45376;-81
2023/05/14 10:40:53;;;;;;;;;19.50;11.75;;;;;;;;5057534;28;45390;-80
2023/05/14 10:43:19;;;;;;;;;16.75;12.25;;;;;;;;5057097;28;45466;-80
2023/05/14 10:45:44;;;;;;;;;17.25;13.50;;;;;;;;5047937;28;45563;-82
2023/05/14 10:48:10;;;;;;;;;16.50;12.75;;;;;;;;5057269;28;47112;-81
2023/05/14 10:50:35;;;;;;;;;14.33;12.00;;;;;;;;5051469;28;45564;-82
2023/05/14 10:53:01;;;;;;;;;16.50;11.25;;;;;;;;5056950;28;45408;-81
2023/05/14 10:55:26;;;;;;;;;21.75;13.25;;;;;;;;5057112;28;45514;-81
2023/05/14 10:57:51;;;;;;;;;17.00;15.33;;;;;;;;5056944;28;46157;-82
2023/05/14 11:00:17;;;;;;;;;15.33;13.67;;;;;;;;5056810;28;45443;-82
2023/05/14 11:02:43;;;;;;;;;20.00;11.25;;;;;;;;5057155;28;45327;-82
2023/05/14 11:05:10;;;;;;;;;19.75;12.50;;;;;;;;5056578;28;45290;-81
2023/05/14 11:07:36;;;;;;;;;18.75;13.00;;;;;;;;5050845;28;47149;-82
2023/05/14 11:10:06;;;;;;;;;13.75;13.75;;;;;;;;5056961;28;45645;-81
2023/05/14 11:12:32;;;;;;;;;15.25;14.75;;;;;;;;5056843;28;45293;-81
2023/05/14 11:14:59;;;;;;;;;16.75;13.50;;;;;;;;5056567;28;45209;-81
2023/05/14 11:17:28;;;;;;;;;15.25;11.75;;;;;;;;5056336;28;46528;-81
2023/05/14 11:19:54;;;;;;;;;15.75;13.50;;;;;;;;5056627;28;45809;-80
2023/05/14 11:22:20;;;;;;;;;16.75;12.00;;;;;;;;5055220;28;45494;-83
2023/05/14 11:24:45;;;;;;;;;19.00;16.50;;;;;;;;5042438;28;45576;-83
2023/05/14 11:27:10;;;;;;;;;17.00;13.00;;;;;;;;5052388;28;46420;-82
2023/05/14 11:29:36;;;;;;;;;14.33;7.67;;;;;;;;5056156;28;45391;-81
2023/05/14 11:32:04;;;;;;;;;15.00;13.50;;;;;;;;5056439;28;45432;-81
2023/05/14 11:34:29;;;;;;;;;18.25;15.25;;;;;;;;5056444;28;45574;-81
2023/05/14 11:36:54;;;;;;;;;20.00;14.75;;;;;;;;5056075;28;47281;-81
2023/05/14 11:39:19;;;;;;;;;22.00;10.67;;;;;;;;5056144;28;45368;-81
2023/05/14 11:41:45;;;;;;;;;22.33;15.33;;;;;;;;5051085;28;45479;-81
2023/05/14 11:44:10;;;;;;;;;12.50;10.75;;;;;;;;5052622;28;45436;-82
2023/05/14 11:46:35;;;;;;;;;23.00;13.50;;;;;;;;5041951;28;47212;-81
2023/05/14 11:49:03;;;;;;;;;15.67;11.33;;;;;;;;5049643;28;45471;-82
2023/05/14 11:51:28;;;;;;;;;17.00;13.50;;;;;;;;5049446;28;45469;-80
2023/05/14 11:53:53;;;;;;;;;21.67;13.33;;;;;;;;5046714;28;45565;-82
2023/05/14 11:56:20;;;;;;;;;15.67;13.67;;;;;;;;5056119;28;46166;-84
2023/05/14 11:58:48;;;;;;;;;14.50;12.50;;;;;;;;5043492;28;45770;-82
2023/05/14 12:01:14;;;;;;;;;23.00;16.25;;;;;;;;5054266;28;45357;-86
2023/05/14 12:03:39;;;;;;;;;23.75;15.75;;;;;;;;5056490;28;45281;-83
2023/05/14 12:06:06;;;;;;;;;15.67;13.00;;;;;;;;5056221;28;46034;-83
2023/05/14 12:08:31;;;;;;;;;16.75;12.75;;;;;;;;5055502;28;46127;-85
2023/05/14 12:10:57;;;;;;;;;14.75;11.75;;;;;;;;5042362;28;45432;-85
2023/05/14 12:13:26;;;;;;;;;12.25;11.25;;;;;;;;5055344;28;45555;-83
2023/05/14 12:15:55;;;;;;;;;16.50;12.00;;;;;;;;5049831;28;47050;-84
2023/05/14 12:18:21;;;;;;;;;14.50;12.50;;;;;;;;5060534;28;45822;-84
2023/05/14 12:20:46;;;;;;;;;17.75;13.25;;;;;;;;5061554;28;45433;-88
2023/05/14 12:23:12;;;;;;;;;13.75;9.75;;;;;;;;5037892;28;45464;-86
2023/05/14 12:25:37;;;;;;;;;15.67;12.00;;;;;;;;5055865;28;46503;-82
2023/05/14 12:28:12;;;;;;;;;20.00;13.33;;;;;;;;5055519;28;45439;-83
2023/05/14 12:30:37;;;;;;;;;15.50;12.75;;;;;;;;5044816;28;45352;-82
2023/05/14 12:33:02;;;;;;;;;16.33;12.00;;;;;;;;5041207;28;45356;-83
2023/05/14 12:35:27;;;;;;;;;12.67;11.33;;;;;;;;5055660;28;46380;-84
2023/05/14 12:37:53;;;;;;;;;15.33;13.00;;;;;;;;5055468;28;45427;-82
2023/05/14 12:40:18;;;;;;;;;16.67;12.00;;;;;;;;5056049;28;45368;-82
2023/05/14 12:42:43;;;;;;;;;15.67;10.67;;;;;;;;5055437;28;45494;-82
2023/05/14 12:45:09;;;;;;;;;16.00;10.75;;;;;;;;5047712;28;45845;-83
2023/05/14 12:47:34;;;;;;;;;16.00;10.00;;;;;;;;5055498;28;45435;-86
2023/05/14 12:50:00;;;;;;;;;7.50;3.25;;;;;;;;5049193;28;45487;-83
2023/05/14 12:52:25;;;;;;;;;15.00;12.00;;;;;;;;5046350;28;45423;-84
2023/05/14 12:54:50;;;;;;;;;13.67;9.67;;;;;;;;5055836;28;45631;-83
2023/05/14 12:57:15;;;;;;;;;12.00;9.67;;;;;;;;5054730;28;45485;-85
2023/05/14 12:59:41;;;;;;;;;18.67;15.33;;;;;;;;5055794;28;45443;-83
2023/05/14 13:02:06;;;;;;;;;10.75;9.00;;;;;;;;5055887;28;45510;-84
2023/05/14 13:04:31;;;;;;;;;12.75;9.25;;;;;;;;5055334;28;46783;-82
2023/05/14 13:06:56;;;;;;;;;11.00;9.67;;;;;;;;5054350;28;45473;-82
2023/05/14 13:09:21;;;;;;;;;12.67;9.67;;;;;;;;5055050;28;45662;-80
2023/05/14 13:11:47;;;;;;;;;18.67;9.67;;;;;;;;5054755;28;45411;-80
2023/05/14 13:14:12;;;;;;;;;11.33;8.00;;;;;;;;5055448;28;46516;-81
2023/05/14 13:16:37;;;;;;;;;14.00;8.00;;;;;;;;5055813;28;45349;-79
2023/05/14 13:19:02;;;;;;;;;12.00;10.00;;;;;;;;5054847;28;45426;-81
2023/05/14 13:21:27;;;;;;;;;13.67;8.00;;;;;;;;5055089;28;45423;-78
2023/05/14 13:23:53;;;;;;;;;12.00;9.67;;;;;;;;5055046;28;46242;-79
2023/05/14 13:26:18;;;;;;;;;13.00;9.33;;;;;;;;5054954;28;45265;-78
2023/05/14 13:28:43;;;;;;;;;11.33;10.67;;;;;;;;5055077;28;45372;-78
2023/05/14 13:31:13;;;;;;;;;12.67;10.00;;;;;;;;5040391;28;45364;-78
2023/05/14 13:33:40;;;;;;;;;14.25;10.25;;;;;;;;5055263;28;45535;-80
2023/05/14 13:36:05;;;;;;;;;10.25;8.75;;;;;;;;5055047;28;45368;-79
2023/05/14 13:38:31;;;;;;;;;13.00;9.50;;;;;;;;5055374;28;45431;-79
2023/05/14 13:41:00;;;;;;;;;12.33;10.00;;;;;;;;5054766;28;45352;-79
2023/05/14 13:43:25;;;;;;;;;11.50;8.50;;;;;;;;5054999;28;47812;-79
2023/05/14 13:45:50;;;;;;;;;10.00;9.33;;;;;;;;5054874;28;45357;-78
2023/05/14 13:48:16;;;;;;;;;8.67;7.00;;;;;;;;5055378;28;45790;-78
2023/05/14 13:50:41;;;;;;;;;10.33;7.67;;;;;;;;5055882;28;45634;-79
2023/05/14 13:53:06;;;;;;;;;10.67;10.00;;;;;;;;5055319;28;46102;-79
2023/05/14 13:55:31;;;;;;;;;11.33;7.00;;;;;;;;5054799;28;45349;-79
2023/05/14 13:57:58;;;;;;;;;15.00;8.33;;;;;;;;5049963;28;45651;-79
2023/05/14 14:00:23;;;;;;;;;13.00;7.75;;;;;;;;5055689;28;45445;-80
2023/05/14 14:02:48;;;;;;;;;10.67;7.00;;;;;;;;5055177;28;45505;-80
2023/05/14 14:05:13;;;;;;;;;11.00;8.00;;;;;;;;5051049;28;46968;-81
2023/05/14 14:07:39;;;;;;;;;11.33;8.33;;;;;;;;5047370;28;45470;-80
2023/05/14 14:10:05;;;;;;;;;10.50;7.50;;;;;;;;5054181;27;45458;-80